Terminal Aerodrome Forecast
Issued by NWS

Home | Current Version | Previous Version | Text Only | Print | Product List | Glossary On
Versions: 1 2 3 4 5 6 7 8 9 10 11 12 13 14
000
FTAK31 PAJN 312300
TAFAYA
TAF
PAYA 312323Z 0100/0124 09010KT P6SM VCSH FEW015 BKN040 OVC060
      TEMPO 0100/0103 09012G20KT 4SM -SHRA BR BKN015 OVC030
     FM010300 08007KT P6SM VCSH BKN040 OVC060
     FM010900 10010KT 5SM -RA BR SCT025 OVC040
     FM011200 12010G20KT 4SM RA BR BKN025 OVC035
     FM012000 12008KT 5SM -RA BR OVC025
      AMD LTD TO CLD VIS AND WIND 0101/0110=

USA.gov is the U.S. government's official web portal to all federal, state and local government web resources and services.